Time;durP1;ratioP1;P1;durP2;ratioP2;P2;SDS_P1;SDS_P2;PMS_P1;PMS_P2;Temp;Humidity;BMP_temperature;BMP_pressure;BME280_temperature;BME280_humidity;BME280_pressure;Samples;Min_cycle;Max_cycle;Signal;HPM_P1;HPM_P2
2023/05/24 00:00:41;;;;;;;5.00;1.45;;;;;;;;;;5071175;28;20036;-73
2023/05/24 00:03:07;;;;;;;4.03;1.15;;;;;;;;;;5071059;28;20028;-74
2023/05/24 00:05:36;;;;;;;0.85;0.85;;;;;;;;;;5053249;28;20033;-74
2023/05/24 00:08:02;;;;;;;1.15;0.95;;;;;;;;;;5053057;28;20111;-74
2023/05/24 00:10:28;;;;;;;2.03;1.40;;;;;;;;;;5071635;28;20020;-74
2023/05/24 00:12:53;;;;;;;3.08;1.38;;;;;;;;;;5053224;28;20024;-75
2023/05/24 00:15:20;;;;;;;2.45;1.02;;;;;;;;;;5053755;28;20491;-74
2023/05/24 00:17:46;;;;;;;2.80;1.42;;;;;;;;;;5072414;28;20100;-74
2023/05/24 00:20:12;;;;;;;3.75;1.40;;;;;;;;;;5070910;28;20586;-75
2023/05/24 00:22:39;;;;;;;1.20;1.10;;;;;;;;;;5052495;28;20115;-74
2023/05/24 00:25:05;;;;;;;2.25;1.23;;;;;;;;;;5070522;28;20365;-74
2023/05/24 00:27:31;;;;;;;2.28;1.10;;;;;;;;;;5052163;28;20034;-74
2023/05/24 00:29:57;;;;;;;2.60;1.95;;;;;;;;;;5051961;28;20107;-74
2023/05/24 00:32:22;;;;;;;3.67;1.48;;;;;;;;;;5070429;28;20100;-74
2023/05/24 00:34:48;;;;;;;2.25;1.27;;;;;;;;;;5051854;28;20050;-73
2023/05/24 00:37:13;;;;;;;2.47;1.10;;;;;;;;;;5052230;28;20024;-74
2023/05/24 00:39:40;;;;;;;3.05;1.02;;;;;;;;;;5044841;28;20115;-73
2023/05/24 00:42:05;;;;;;;1.73;1.30;;;;;;;;;;5031437;28;20033;-73
2023/05/24 00:44:31;;;;;;;3.38;1.25;;;;;;;;;;5032268;28;20135;-75
2023/05/24 00:46:57;;;;;;;3.10;1.40;;;;;;;;;;5049867;28;20025;-74
2023/05/24 00:49:22;;;;;;;2.13;1.50;;;;;;;;;;5050308;28;20402;-74
2023/05/24 00:51:50;;;;;;;1.55;1.20;;;;;;;;;;5032326;28;20029;-74
2023/05/24 00:54:15;;;;;;;2.42;1.38;;;;;;;;;;5015833;28;20020;-74
2023/05/24 00:56:42;;;;;;;2.85;1.23;;;;;;;;;;5049951;28;20123;-73
2023/05/24 00:59:08;;;;;;;2.80;1.38;;;;;;;;;;5049079;28;20045;-73
2023/05/24 01:01:34;;;;;;;3.97;1.20;;;;;;;;;;5050320;28;20032;-73
2023/05/24 01:04:00;;;;;;;4.95;1.30;;;;;;;;;;5031951;28;20101;-73
2023/05/24 01:06:27;;;;;;;1.13;1.00;;;;;;;;;;5050486;28;20469;-75
2023/05/24 01:09:18;;;;;;;5.00;1.42;;;;;;;;;;5050260;28;20449;-74
2023/05/24 01:12:08;;;;;;;4.35;1.15;;;;;;;;;;5032161;28;20070;-74
2023/05/24 01:14:40;;;;;;;3.70;1.17;;;;;;;;;;5031944;28;20054;-75
2023/05/24 01:17:17;;;;;;;1.75;1.65;;;;;;;;;;5049943;28;20214;-74
2023/05/24 01:20:00;;;;;;;4.07;1.40;;;;;;;;;;5032146;28;20417;-74
2023/05/24 01:22:56;;;;;;;2.20;1.50;;;;;;;;;;5050275;28;20055;-74
2023/05/24 01:25:47;;;;;;;3.00;2.03;;;;;;;;;;5050098;28;20037;-74
2023/05/24 01:28:15;;;;;;;3.50;2.13;;;;;;;;;;5050269;28;20029;-74
2023/05/24 01:30:41;;;;;;;2.67;1.98;;;;;;;;;;5031809;28;20074;-74
2023/05/24 01:33:07;;;;;;;6.32;2.20;;;;;;;;;;5049565;28;20033;-74
2023/05/24 01:35:39;;;;;;;4.95;2.60;;;;;;;;;;5049826;28;20044;-74
2023/05/24 01:38:18;;;;;;;3.75;2.10;;;;;;;;;;5047494;28;20047;-74
2023/05/24 01:40:47;;;;;;;2.47;2.28;;;;;;;;;;5049390;28;20025;-74
2023/05/24 01:43:32;;;;;;;5.82;2.38;;;;;;;;;;5049146;28;20032;-74
2023/05/24 01:46:16;;;;;;;4.30;2.60;;;;;;;;;;5031191;28;20128;-74
2023/05/24 01:49:12;;;;;;;4.05;2.42;;;;;;;;;;5049594;28;20113;-74
2023/05/24 01:51:52;;;;;;;7.22;2.42;;;;;;;;;;5051284;28;20039;-74
2023/05/24 01:54:24;;;;;;;6.65;2.88;;;;;;;;;;5031587;28;20382;-74
2023/05/24 01:56:51;;;;;;;;;;;;;;;;;;5049413;28;20535;-74
2023/05/24 01:59:17;;;;;;;6.88;2.65;;;;;;;;;;5031389;28;20376;-74
2023/05/24 02:01:43;;;;;;;7.60;2.90;;;;;;;;;;5031457;28;20033;-74
2023/05/24 02:04:08;;;;;;;3.25;2.88;;;;;;;;;;5048806;28;20025;-74
2023/05/24 02:06:34;;;;;;;7.03;2.88;;;;;;;;;;5031298;28;20120;-74
2023/05/24 02:09:00;;;;;;;5.22;2.38;;;;;;;;;;5031142;28;20112;-74
2023/05/24 02:11:26;;;;;;;4.82;2.47;;;;;;;;;;5053250;28;20104;-74
2023/05/24 02:13:51;;;;;;;5.55;3.15;;;;;;;;;;5053270;28;20020;-74
2023/05/24 02:16:17;;;;;;;4.45;2.55;;;;;;;;;;5034846;28;20033;-74
2023/05/24 02:18:43;;;;;;;7.22;2.95;;;;;;;;;;5035133;28;20381;-74
2023/05/24 02:21:09;;;;;;;8.13;2.90;;;;;;;;;;5053022;28;20023;-74
2023/05/24 02:23:36;;;;;;;4.63;2.80;;;;;;;;;;5018756;28;20429;-74
2023/05/24 02:26:01;;;;;;;7.38;2.97;;;;;;;;;;5053109;28;20025;-74
2023/05/24 02:28:28;;;;;;;7.07;3.05;;;;;;;;;;5035178;28;20070;-74
2023/05/24 02:30:54;;;;;;;9.85;3.28;;;;;;;;;;5052931;28;20104;-75
2023/05/24 02:33:20;;;;;;;6.55;2.60;;;;;;;;;;5035170;28;20116;-74
2023/05/24 02:35:45;;;;;;;7.65;3.08;;;;;;;;;;5052875;28;20025;-74
2023/05/24 02:38:11;;;;;;;8.45;3.28;;;;;;;;;;5034729;28;20025;-74
2023/05/24 02:40:36;;;;;;;12.25;3.80;;;;;;;;;;5052887;28;20040;-74
2023/05/24 02:43:02;;;;;;;12.55;3.80;;;;;;;;;;5052811;28;20044;-74
2023/05/24 02:45:28;;;;;;;5.63;2.97;;;;;;;;;;5053349;28;20377;-74
2023/05/24 02:47:53;;;;;;;11.30;3.80;;;;;;;;;;5035234;28;20103;-74
2023/05/24 02:50:19;;;;;;;10.80;3.92;;;;;;;;;;5052660;28;20108;-75
2023/05/24 02:52:44;;;;;;;7.18;3.33;;;;;;;;;;5052702;28;20032;-74
2023/05/24 02:55:10;;;;;;;12.95;4.07;;;;;;;;;;5052172;28;20029;-74
2023/05/24 02:57:36;;;;;;;7.45;3.60;;;;;;;;;;5052380;28;20075;-74
2023/05/24 03:00:04;;;;;;;9.45;3.55;;;;;;;;;;5052120;28;20025;-73
2023/05/24 03:02:32;;;;;;;14.10;3.85;;;;;;;;;;5034179;28;20032;-74
2023/05/24 03:04:58;;;;;;;9.65;3.97;;;;;;;;;;5052058;28;20025;-74
2023/05/24 03:07:23;;;;;;;4.05;3.50;;;;;;;;;;5052277;28;20028;-74
2023/05/24 03:09:49;;;;;;;10.68;3.72;;;;;;;;;;5034104;28;20650;-74
2023/05/24 03:12:14;;;;;;;8.75;3.75;;;;;;;;;;5033987;28;20098;-74
2023/05/24 03:14:40;;;;;;;7.93;3.50;;;;;;;;;;5033927;28;20021;-74
2023/05/24 03:17:05;;;;;;;9.25;3.90;;;;;;;;;;5051854;28;20029;-74
2023/05/24 03:19:31;;;;;;;7.25;3.45;;;;;;;;;;5051910;28;20100;-75
2023/05/24 03:21:56;;;;;;;8.70;3.85;;;;;;;;;;5050898;28;20139;-76
2023/05/24 03:24:22;;;;;;;7.30;3.95;;;;;;;;;;5033818;28;20040;-74
2023/05/24 03:26:47;;;;;;;7.93;3.72;;;;;;;;;;5051999;28;20127;-74
2023/05/24 03:29:13;;;;;;;9.77;3.80;;;;;;;;;;5033418;28;20021;-74
2023/05/24 03:31:38;;;;;;;9.70;3.25;;;;;;;;;;5051806;28;20575;-73
2023/05/24 03:34:04;;;;;;;11.45;3.28;;;;;;;;;;5051711;28;20064;-74
2023/05/24 03:36:29;;;;;;;11.55;2.95;;;;;;;;;;5053127;28;20397;-73
2023/05/24 03:38:57;;;;;;;16.90;3.20;;;;;;;;;;5053234;28;20373;-74
2023/05/24 03:41:22;;;;;;;16.50;3.28;;;;;;;;;;5038936;28;20049;-74
2023/05/24 03:43:48;;;;;;;14.50;2.95;;;;;;;;;;5042509;28;20032;-74
2023/05/24 03:46:13;;;;;;;11.35;3.15;;;;;;;;;;5062124;28;20525;-74
2023/05/24 03:48:39;;;;;;;13.10;3.45;;;;;;;;;;5052140;28;20032;-73
2023/05/24 03:51:04;;;;;;;10.73;3.13;;;;;;;;;;5051461;28;20021;-74
2023/05/24 03:53:31;;;;;;;13.10;3.50;;;;;;;;;;5051371;28;20040;-74
2023/05/24 03:55:56;;;;;;;17.65;4.10;;;;;;;;;;5051338;28;20033;-74
2023/05/24 03:58:21;;;;;;;12.32;2.75;;;;;;;;;;5032718;28;20294;-73
2023/05/24 04:00:47;;;;;;;10.90;3.40;;;;;;;;;;5051584;28;20659;-74
2023/05/24 04:03:13;;;;;;;9.32;2.58;;;;;;;;;;5050861;28;20036;-74
2023/05/24 04:05:39;;;;;;;10.63;2.85;;;;;;;;;;5033127;28;20025;-73
2023/05/24 04:08:05;;;;;;;13.90;3.13;;;;;;;;;;5051098;28;20112;-74
2023/05/24 04:10:30;;;;;;;13.98;2.70;;;;;;;;;;5033111;28;20098;-73
2023/05/24 04:12:56;;;;;;;13.68;3.05;;;;;;;;;;5051192;28;20085;-74
2023/05/24 04:15:22;;;;;;;11.10;2.97;;;;;;;;;;5033004;28;20033;-74
2023/05/24 04:17:53;;;;;;;22.05;4.53;;;;;;;;;;5033460;28;20060;-74
2023/05/24 04:20:21;;;;;;;16.15;2.90;;;;;;;;;;5017343;28;20044;-74
2023/05/24 04:22:46;;;;;;;14.13;3.38;;;;;;;;;;5016906;28;20041;-74
2023/05/24 04:25:12;;;;;;;10.70;3.30;;;;;;;;;;5051064;28;20043;-74
2023/05/24 04:27:37;;;;;;;11.35;3.03;;;;;;;;;;5050790;28;20037;-74
2023/05/24 04:30:04;;;;;;;12.45;2.80;;;;;;;;;;5050723;28;20047;-74
2023/05/24 04:32:30;;;;;;;6.82;3.60;;;;;;;;;;5050904;28;20082;-74
2023/05/24 04:34:56;;;;;;;13.98;2.88;;;;;;;;;;5016501;28;20033;-74
2023/05/24 04:37:21;;;;;;;14.25;3.55;;;;;;;;;;5052417;28;20033;-75
2023/05/24 04:39:47;;;;;;;9.85;3.63;;;;;;;;;;5034299;28;20044;-73
2023/05/24 04:42:13;;;;;;;18.98;3.60;;;;;;;;;;5052187;28;20086;-75
2023/05/24 04:44:41;;;;;;;9.57;3.97;;;;;;;;;;5012903;28;20056;-74
2023/05/24 04:47:07;;;;;;;11.77;3.30;;;;;;;;;;5033059;28;20025;-73
2023/05/24 04:49:33;;;;;;;14.60;3.15;;;;;;;;;;5013062;28;20359;-74
2023/05/24 04:51:59;;;;;;;12.95;3.35;;;;;;;;;;5029291;28;20033;-74
2023/05/24 04:54:24;;;;;;;10.85;3.13;;;;;;;;;;5044403;28;20392;-75
2023/05/24 04:56:50;;;;;;;21.38;3.33;;;;;;;;;;5051909;28;20445;-74
2023/05/24 04:59:15;;;;;;;11.15;3.20;;;;;;;;;;5041119;28;20477;-74
2023/05/24 05:01:41;;;;;;;14.23;3.70;;;;;;;;;;5049959;28;20666;-74
2023/05/24 05:04:08;;;;;;;15.80;3.40;;;;;;;;;;5032374;28;20516;-75
2023/05/24 05:06:37;;;;;;;12.70;4.88;;;;;;;;;;5032451;28;20083;-74
2023/05/24 05:09:04;;;;;;;7.00;2.85;;;;;;;;;;5031943;28;20465;-73
2023/05/24 05:11:30;;;;;;;14.07;3.75;;;;;;;;;;5031909;28;20127;-73
2023/05/24 05:13:55;;;;;;;16.20;4.40;;;;;;;;;;5030281;28;20137;-73
2023/05/24 05:16:21;;;;;;;14.13;4.00;;;;;;;;;;5049267;28;20140;-74
2023/05/24 05:18:46;;;;;;;16.05;3.72;;;;;;;;;;5025414;28;20385;-74
2023/05/24 05:21:12;;;;;;;14.30;2.97;;;;;;;;;;5042262;28;20436;-74
2023/05/24 05:23:38;;;;;;;16.27;3.63;;;;;;;;;;5033897;28;20049;-74
2023/05/24 05:26:06;;;;;;;14.55;3.17;;;;;;;;;;5039028;28;20040;-75
2023/05/24 05:28:31;;;;;;;6.93;3.25;;;;;;;;;;5031600;28;20417;-75
2023/05/24 05:30:58;;;;;;;10.10;2.58;;;;;;;;;;5040917;28;20121;-74
2023/05/24 05:33:24;;;;;;;12.48;3.45;;;;;;;;;;5016485;28;20047;-75
2023/05/24 05:35:50;;;;;;;15.10;3.53;;;;;;;;;;5032548;28;20020;-75
2023/05/24 05:38:16;;;;;;;10.30;3.38;;;;;;;;;;5055149;28;20032;-75
2023/05/24 05:40:42;;;;;;;8.30;2.65;;;;;;;;;;5041766;28;20095;-75
2023/05/24 05:43:08;;;;;;;16.17;4.72;;;;;;;;;;5029734;28;20792;-74
2023/05/24 05:45:33;;;;;;;16.58;3.42;;;;;;;;;;5055168;28;20041;-74
2023/05/24 05:47:59;;;;;;;19.45;6.38;;;;;;;;;;5047959;28;20040;-75
2023/05/24 05:50:25;;;;;;;10.70;3.10;;;;;;;;;;5030032;28;20126;-74
2023/05/24 05:52:50;;;;;;;10.93;3.63;;;;;;;;;;5027456;28;20036;-74
2023/05/24 05:55:16;;;;;;;15.73;3.22;;;;;;;;;;5056583;28;20036;-75
2023/05/24 05:57:41;;;;;;;12.13;3.60;;;;;;;;;;5046165;28;20063;-76
2023/05/24 06:00:08;;;;;;;13.93;4.10;;;;;;;;;;5048607;28;20447;-74
2023/05/24 06:02:33;;;;;;;11.27;3.67;;;;;;;;;;5021239;28;20041;-74
2023/05/24 06:04:59;;;;;;;14.50;3.88;;;;;;;;;;5055103;28;20485;-77
2023/05/24 06:07:25;;;;;;;13.20;3.28;;;;;;;;;;5035454;28;20471;-75
2023/05/24 06:09:50;;;;;;;9.85;3.72;;;;;;;;;;5033680;28;20029;-74
2023/05/24 06:12:16;;;;;;;9.73;3.72;;;;;;;;;;5051954;28;20427;-75
2023/05/24 06:14:42;;;;;;;11.95;3.70;;;;;;;;;;5039390;28;20039;-75
2023/05/24 06:17:08;;;;;;;12.40;4.53;;;;;;;;;;5050757;28;20958;-73
2023/05/24 06:19:33;;;;;;;15.32;4.07;;;;;;;;;;5035778;28;20028;-72
2023/05/24 06:21:59;;;;;;;17.55;3.75;;;;;;;;;;5036244;28;20085;-73
2023/05/24 06:24:27;;;;;;;18.17;3.95;;;;;;;;;;5029542;28;20036;-74
2023/05/24 06:26:53;;;;;;;17.98;4.80;;;;;;;;;;5033705;28;20035;-72
2023/05/24 06:29:20;;;;;;;15.40;5.05;;;;;;;;;;5032390;28;20032;-74
2023/05/24 06:31:46;;;;;;;7.85;4.20;;;;;;;;;;5034886;28;20038;-73
2023/05/24 06:34:15;;;;;;;16.92;3.42;;;;;;;;;;5018757;28;20095;-73
2023/05/24 06:36:41;;;;;;;10.80;3.70;;;;;;;;;;5031365;28;20032;-75
2023/05/24 06:39:13;;;;;;;9.30;3.38;;;;;;;;;;5042834;28;20045;-74
2023/05/24 06:41:42;;;;;;;;;;;;;;;;;;5028782;28;20040;-77
2023/05/24 06:44:08;;;;;;;10.05;3.35;;;;;;;;;;5046070;28;20002;-74
2023/05/24 06:46:33;;;;;;;12.05;3.42;;;;;;;;;;5050683;28;20065;-73
2023/05/24 06:48:59;;;;;;;13.05;3.63;;;;;;;;;;5023161;28;20080;-75
2023/05/24 06:51:25;;;;;;;12.40;3.70;;;;;;;;;;5033246;28;20480;-76
2023/05/24 06:53:51;;;;;;;13.35;3.80;;;;;;;;;;5041312;28;20029;-75
2023/05/24 06:56:17;;;;;;;10.82;3.50;;;;;;;;;;5026946;28;20032;-76
2023/05/24 06:58:42;;;;;;;8.63;3.28;;;;;;;;;;5035605;28;20105;-76
2023/05/24 07:01:09;;;;;;;19.40;4.07;;;;;;;;;;5041828;28;20481;-75
2023/05/24 07:03:35;;;;;;;16.35;4.00;;;;;;;;;;5050538;28;20040;-74
2023/05/24 07:06:02;;;;;;;12.43;3.42;;;;;;;;;;5037420;28;20017;-75
2023/05/24 07:08:28;;;;;;;11.63;3.17;;;;;;;;;;5030475;28;20036;-73
2023/05/24 07:10:54;;;;;;;14.48;3.75;;;;;;;;;;5046931;28;20028;-75
2023/05/24 07:13:20;;;;;;;17.60;3.75;;;;;;;;;;5046865;28;20033;-74
2023/05/24 07:15:46;;;;;;;16.45;3.47;;;;;;;;;;5048513;28;20036;-73
2023/05/24 07:18:12;;;;;;;16.38;4.07;;;;;;;;;;5050424;28;20330;-74
2023/05/24 07:20:39;;;;;;;17.48;4.90;;;;;;;;;;5030438;28;20048;-74
2023/05/24 07:23:05;;;;;;;10.93;4.00;;;;;;;;;;5019545;28;20040;-74
2023/05/24 07:25:32;;;;;;;12.05;3.85;;;;;;;;;;5048373;28;20100;-74
2023/05/24 07:27:58;;;;;;;14.60;4.15;;;;;;;;;;5039942;28;20041;-72
2023/05/24 07:30:23;;;;;;;11.93;3.40;;;;;;;;;;5033442;28;20032;-74
2023/05/24 07:32:49;;;;;;;10.85;4.38;;;;;;;;;;5046484;28;20112;-73
2023/05/24 07:35:16;;;;;;;10.10;3.60;;;;;;;;;;5015732;28;20060;-74
2023/05/24 07:37:41;;;;;;;10.70;3.78;;;;;;;;;;5028378;28;20033;-73
2023/05/24 07:40:11;;;;;;;17.63;4.30;;;;;;;;;;5042569;28;20098;-72
2023/05/24 07:42:40;;;;;;;14.05;4.03;;;;;;;;;;5025041;28;20530;-76
2023/05/24 07:45:07;;;;;;;16.50;4.50;;;;;;;;;;5022549;28;20063;-74
2023/05/24 07:47:33;;;;;;;23.45;5.95;;;;;;;;;;5036041;28;20122;-73
2023/05/24 07:49:59;;;;;;;10.20;3.65;;;;;;;;;;5051125;28;20029;-73
2023/05/24 07:52:25;;;;;;;11.73;3.95;;;;;;;;;;5030257;28;20040;-75
2023/05/24 07:54:51;;;;;;;11.50;4.50;;;;;;;;;;5044770;28;20043;-74
2023/05/24 07:57:17;;;;;;;23.08;4.93;;;;;;;;;;5034142;28;20048;-73
2023/05/24 07:59:45;;;;;;;13.25;4.60;;;;;;;;;;5019087;28;20024;-75
2023/05/24 08:02:13;;;;;;;33.00;5.32;;;;;;;;;;5041498;28;20024;-74
2023/05/24 08:04:39;;;;;;;13.25;4.53;;;;;;;;;;5040187;28;20043;-75
2023/05/24 08:07:05;;;;;;;13.90;4.47;;;;;;;;;;5047609;28;20009;-74
2023/05/24 08:09:35;;;;;;;16.73;4.20;;;;;;;;;;5034486;28;20507;-75
2023/05/24 08:12:04;;;;;;;12.40;3.83;;;;;;;;;;5054140;28;20033;-73
2023/05/24 08:14:30;;;;;;;14.93;4.80;;;;;;;;;;5030821;28;20132;-74
2023/05/24 08:16:55;;;;;;;14.23;3.95;;;;;;;;;;5032402;28;20036;-74
2023/05/24 08:19:22;;;;;;;18.10;4.65;;;;;;;;;;5023288;28;20037;-76
2023/05/24 08:21:47;;;;;;;11.25;3.55;;;;;;;;;;5024767;28;20032;-75
2023/05/24 08:24:13;;;;;;;13.15;3.55;;;;;;;;;;5045991;28;20037;-75
2023/05/24 08:26:39;;;;;;;14.35;4.55;;;;;;;;;;5034962;28;20117;-76
2023/05/24 08:29:04;;;;;;;12.05;3.85;;;;;;;;;;5032521;28;20119;-76
2023/05/24 08:31:32;;;;;;;14.82;4.25;;;;;;;;;;5029218;28;20029;-72
2023/05/24 08:33:58;;;;;;;10.20;4.00;;;;;;;;;;5049597;28;20496;-75
2023/05/24 08:36:25;;;;;;;11.40;4.22;;;;;;;;;;5036194;28;20033;-75
2023/05/24 08:38:51;;;;;;;13.02;4.63;;;;;;;;;;5036122;28;20505;-74
2023/05/24 08:41:16;;;;;;;17.08;4.15;;;;;;;;;;5052712;28;20030;-73
2023/05/24 08:43:43;;;;;;;9.25;3.72;;;;;;;;;;5013214;28;20508;-74
2023/05/24 08:46:11;;;;;;;12.77;4.25;;;;;;;;;;5049724;28;20017;-73
2023/05/24 08:48:47;;;;;;;15.30;4.68;;;;;;;;;;4999419;28;20574;-74
2023/05/24 08:51:14;;;;;;;15.23;4.07;;;;;;;;;;5052264;28;20071;-73
2023/05/24 08:53:41;;;;;;;29.88;5.78;;;;;;;;;;5014917;28;20036;-74
2023/05/24 08:56:10;;;;;;;14.27;4.63;;;;;;;;;;5030830;28;20040;-73
2023/05/24 08:58:39;;;;;;;15.68;3.88;;;;;;;;;;5013596;28;20454;-72
2023/05/24 09:01:06;;;;;;;8.93;4.05;;;;;;;;;;5033049;28;20049;-73
2023/05/24 09:03:32;;;;;;;13.15;4.10;;;;;;;;;;5029807;28;20044;-75
2023/05/24 09:05:59;;;;;;;15.65;3.90;;;;;;;;;;5027662;28;20065;-73
2023/05/24 09:08:26;;;;;;;10.02;4.28;;;;;;;;;;5009347;28;20045;-74
2023/05/24 09:10:52;;;;;;;15.82;4.75;;;;;;;;;;5042431;28;20040;-77
2023/05/24 09:13:18;;;;;;;17.75;4.72;;;;;;;;;;5024255;28;20037;-74
2023/05/24 09:15:44;;;;;;;12.25;4.72;;;;;;;;;;5016109;28;20033;-76
2023/05/24 09:18:10;;;;;;;10.93;3.97;;;;;;;;;;5022004;28;20506;-75
2023/05/24 09:20:35;;;;;;;9.27;3.95;;;;;;;;;;5015881;28;20112;-74
2023/05/24 09:23:03;;;;;;;36.75;6.88;;;;;;;;;;5014621;28;20048;-75
2023/05/24 09:25:29;;;;;;;12.45;3.85;;;;;;;;;;5015334;28;20037;-74
2023/05/24 09:27:56;;;;;;;15.65;4.07;;;;;;;;;;5032871;28;20025;-73
2023/05/24 09:30:22;;;;;;;10.80;3.95;;;;;;;;;;5008881;28;20033;-75
2023/05/24 09:32:58;;;;;;;13.23;4.07;;;;;;;;;;5004903;28;20556;-77
2023/05/24 09:35:28;;;;;;;12.35;5.03;;;;;;;;;;5016420;28;20103;-76
2023/05/24 09:37:59;;;;;;;13.85;4.90;;;;;;;;;;5019078;28;20721;-76
2023/05/24 09:40:25;;;;;;;11.00;4.63;;;;;;;;;;5005924;28;20066;-74
2023/05/24 09:43:09;;;;;;;10.90;4.07;;;;;;;;;;5035159;28;20029;-76
2023/05/24 09:45:45;;;;;;;19.70;4.32;;;;;;;;;;5021179;28;20052;-74
2023/05/24 09:48:16;;;;;;;10.35;4.15;;;;;;;;;;5035320;28;20033;-74
2023/05/24 09:50:46;;;;;;;12.38;4.55;;;;;;;;;;4992534;28;20035;-73
2023/05/24 09:53:12;;;;;;;15.50;4.78;;;;;;;;;;5011401;28;20361;-72
2023/05/24 09:55:37;;;;;;;14.80;4.00;;;;;;;;;;5041206;28;20043;-74
2023/05/24 09:58:07;;;;;;;9.13;4.05;;;;;;;;;;5043249;28;20454;-73
2023/05/24 10:00:38;;;;;;;10.85;4.68;;;;;;;;;;5047482;28;20461;-74
2023/05/24 10:03:06;;;;;;;22.05;7.20;;;;;;;;;;5027465;28;20021;-74
2023/05/24 10:05:32;;;;;;;7.63;3.58;;;;;;;;;;5027786;28;20037;-73
2023/05/24 10:07:59;;;;;;;10.20;4.28;;;;;;;;;;5038922;28;20054;-74
2023/05/24 10:10:29;;;;;;;14.38;5.07;;;;;;;;;;5028927;28;20067;-73
2023/05/24 10:13:00;;;;;;;8.00;4.53;;;;;;;;;;5021619;28;20044;-74
2023/05/24 10:15:26;;;;;;;14.67;4.10;;;;;;;;;;5032740;28;20078;-74
2023/05/24 10:17:53;;;;;;;9.82;4.05;;;;;;;;;;5044375;28;20309;-74
2023/05/24 10:20:18;;;;;;;7.60;3.63;;;;;;;;;;5022832;28;20533;-75
2023/05/24 10:22:46;;;;;;;10.32;4.03;;;;;;;;;;5046504;28;20745;-75
2023/05/24 10:25:19;;;;;;;25.63;6.13;;;;;;;;;;5053996;28;20040;-74
2023/05/24 10:27:45;;;;;;;12.70;4.22;;;;;;;;;;5022383;28;20473;-74
2023/05/24 10:30:19;;;;;;;15.57;4.30;;;;;;;;;;5011077;28;20043;-74
2023/05/24 10:32:47;;;;;;;11.82;3.80;;;;;;;;;;5044289;28;20064;-74
2023/05/24 10:35:15;;;;;;;10.63;3.63;;;;;;;;;;5058032;28;20185;-75
2023/05/24 10:37:44;;;;;;;9.93;3.97;;;;;;;;;;5061385;28;20024;-74
2023/05/24 10:40:18;;;;;;;14.95;4.18;;;;;;;;;;5039513;28;20099;-73
2023/05/24 10:42:46;;;;;;;8.27;4.20;;;;;;;;;;5034847;28;20036;-74
2023/05/24 10:45:23;;;;;;;13.23;4.68;;;;;;;;;;5024606;28;20044;-75
2023/05/24 10:47:49;;;;;;;15.07;5.13;;;;;;;;;;5022250;28;20018;-74
2023/05/24 10:50:20;;;;;;;12.60;4.63;;;;;;;;;;5040704;28;20094;-76
2023/05/24 10:52:48;;;;;;;11.38;5.85;;;;;;;;;;5042180;28;20044;-72
2023/05/24 10:55:14;;;;;;;12.82;8.02;;;;;;;;;;5036524;28;20051;-73
2023/05/24 10:57:40;;;;;;;12.30;5.30;;;;;;;;;;5045341;28;20037;-75
2023/05/24 11:00:24;;;;;;;8.25;4.05;;;;;;;;;;5020279;28;20517;-75
2023/05/24 11:02:50;;;;;;;12.43;4.22;;;;;;;;;;5034374;28;20051;-74
2023/05/24 11:05:17;;;;;;;21.80;4.28;;;;;;;;;;5026985;28;20028;-74
2023/05/24 11:07:43;;;;;;;15.00;4.50;;;;;;;;;;5004435;28;20036;-74
2023/05/24 11:10:14;;;;;;;12.60;5.00;;;;;;;;;;5033831;28;20079;-74
2023/05/24 11:12:43;;;;;;;8.45;4.25;;;;;;;;;;5041934;28;20033;-74
2023/05/24 11:15:10;;;;;;;11.85;3.67;;;;;;;;;;5034488;28;20371;-74
2023/05/24 11:18:15;;;;;;;7.40;3.63;;;;;;;;;;5028198;28;20397;-75
2023/05/24 11:20:42;;;;;;;9.77;4.00;;;;;;;;;;5027564;28;20034;-74
2023/05/24 11:23:13;;;;;;;14.48;3.55;;;;;;;;;;5027281;28;20469;-75
2023/05/24 11:25:38;;;;;;;10.02;4.10;;;;;;;;;;5035342;28;20040;-74
2023/05/24 11:28:09;;;;;;;14.13;4.63;;;;;;;;;;5034274;28;20041;-76
2023/05/24 11:30:46;;;;;;;9.50;4.13;;;;;;;;;;5035502;28;20386;-76
2023/05/24 11:33:22;;;;;;;7.35;3.72;;;;;;;;;;5040041;28;20040;-76
2023/05/24 11:35:53;;;;;;;9.75;3.90;;;;;;;;;;5030678;28;20036;-74
2023/05/24 11:38:20;;;;;;;12.02;3.75;;;;;;;;;;5029084;28;20075;-75
2023/05/24 11:40:49;;;;;;;10.45;3.80;;;;;;;;;;5029390;28;20061;-76
2023/05/24 11:43:20;;;;;;;10.07;4.10;;;;;;;;;;5023196;28;20179;-75
2023/05/24 11:45:47;;;;;;;;;;;;;;;;;;5023222;28;20033;-75
2023/05/24 11:48:15;;;;;;;7.43;3.13;;;;;;;;;;5029230;28;20281;-74
2023/05/24 11:50:42;;;;;;;7.75;3.70;;;;;;;;;;5051602;28;20017;-74
2023/05/24 11:53:12;;;;;;;8.80;3.97;;;;;;;;;;5044980;28;20104;-73
2023/05/24 11:55:39;;;;;;;9.43;3.63;;;;;;;;;;5040885;28;20543;-74
2023/05/24 11:58:13;;;;;;;10.93;3.38;;;;;;;;;;5025081;28;20044;-72
2023/05/24 12:00:38;;;;;;;10.48;4.32;;;;;;;;;;5019254;28;20028;-73
2023/05/24 12:03:06;;;;;;;9.27;3.45;;;;;;;;;;5021895;28;20036;-74
2023/05/24 12:05:36;;;;;;;18.13;6.75;;;;;;;;;;5030364;28;20527;-75
2023/05/24 12:08:11;;;;;;;8.35;3.85;;;;;;;;;;5037912;28;20032;-73
2023/05/24 12:10:38;;;;;;;10.15;3.63;;;;;;;;;;5035459;28;20091;-75
2023/05/24 12:13:16;;;;;;;12.43;3.80;;;;;;;;;;5046350;28;20020;-75
2023/05/24 12:15:42;;;;;;;8.65;3.63;;;;;;;;;;5046139;28;20026;-75
2023/05/24 12:18:18;;;;;;;8.68;3.83;;;;;;;;;;5034206;28;20118;-74
2023/05/24 12:20:47;;;;;;;11.38;4.25;;;;;;;;;;5047318;28;20061;-75
2023/05/24 12:23:14;;;;;;;15.10;3.53;;;;;;;;;;5045710;28;20025;-75
2023/05/24 12:25:43;;;;;;;13.63;3.78;;;;;;;;;;5025589;28;20057;-74
2023/05/24 12:28:09;;;;;;;10.10;3.45;;;;;;;;;;5053589;28;20044;-76
2023/05/24 12:30:48;;;;;;;10.90;3.35;;;;;;;;;;5040917;28;20025;-74
2023/05/24 12:33:17;;;;;;;7.07;3.30;;;;;;;;;;5048174;28;20039;-74
2023/05/24 12:35:42;;;;;;;10.40;3.10;;;;;;;;;;5031334;28;20030;-74
2023/05/24 12:38:09;;;;;;;12.15;3.60;;;;;;;;;;5027216;28;20128;-75
2023/05/24 12:40:35;;;;;;;9.45;3.92;;;;;;;;;;5055745;28;20044;-74
2023/05/24 12:43:03;;;;;;;9.23;3.35;;;;;;;;;;5044590;28;20029;-74
2023/05/24 12:45:30;;;;;;;6.45;3.03;;;;;;;;;;5050918;28;20429;-74
2023/05/24 12:48:01;;;;;;;8.05;3.17;;;;;;;;;;5046586;28;20021;-73
2023/05/24 12:50:27;;;;;;;13.73;3.88;;;;;;;;;;5034456;28;20020;-75
2023/05/24 12:52:53;;;;;;;9.18;3.45;;;;;;;;;;5049242;28;20105;-75
2023/05/24 12:55:24;;;;;;;10.13;3.42;;;;;;;;;;5019011;28;20462;-74
2023/05/24 12:57:53;;;;;;;;;;;;;;;;;;5026178;28;20044;-75
2023/05/24 13:00:20;;;;;;;8.65;3.08;;;;;;;;;;5032844;28;19936;-74
2023/05/24 13:02:47;;;;;;;11.35;3.75;;;;;;;;;;5039389;28;20032;-75
2023/05/24 13:05:13;;;;;;;10.85;3.03;;;;;;;;;;5049508;28;20040;-75
2023/05/24 13:07:39;;;;;;;11.13;3.40;;;;;;;;;;5031491;28;20037;-75
2023/05/24 13:10:05;;;;;;;12.63;3.70;;;;;;;;;;5035037;28;20124;-75
2023/05/24 13:12:32;;;;;;;12.05;3.47;;;;;;;;;;5034378;28;20047;-75
2023/05/24 13:15:10;;;;;;;9.57;3.00;;;;;;;;;;5051475;28;20030;-73
2023/05/24 13:17:39;;;;;;;10.25;3.20;;;;;;;;;;5031338;28;20084;-75
2023/05/24 13:20:09;;;;;;;10.05;2.90;;;;;;;;;;5055235;28;20486;-74
2023/05/24 13:22:37;;;;;;;12.15;3.17;;;;;;;;;;5047523;28;20041;-74
2023/05/24 13:25:05;;;;;;;15.30;3.30;;;;;;;;;;5041186;28;20045;-74
2023/05/24 13:27:30;;;;;;;8.57;3.00;;;;;;;;;;5030477;28;20075;-74
2023/05/24 13:30:06;;;;;;;8.82;2.85;;;;;;;;;;5030091;28;20056;-74
2023/05/24 13:32:32;;;;;;;10.52;2.83;;;;;;;;;;5039601;28;20021;-74
2023/05/24 13:34:57;;;;;;;7.40;2.50;;;;;;;;;;5027194;28;20487;-75
2023/05/24 13:37:24;;;;;;;15.43;3.83;;;;;;;;;;5037043;28;20025;-74
2023/05/24 13:39:50;;;;;;;9.55;2.90;;;;;;;;;;5021585;28;20021;-75
2023/05/24 13:42:16;;;;;;;10.45;2.80;;;;;;;;;;5020100;28;20458;-75
2023/05/24 13:44:43;;;;;;;9.20;2.72;;;;;;;;;;5031682;28;20044;-74
2023/05/24 13:47:08;;;;;;;13.25;3.00;;;;;;;;;;5019955;28;20757;-75
2023/05/24 13:49:34;;;;;;;8.80;2.63;;;;;;;;;;5043767;28;20029;-76
2023/05/24 13:52:00;;;;;;;12.80;3.10;;;;;;;;;;5021217;28;20445;-75
2023/05/24 13:54:26;;;;;;;12.23;2.97;;;;;;;;;;5028406;28;20115;-74
2023/05/24 13:56:56;;;;;;;8.88;3.30;;;;;;;;;;5042878;28;20500;-75
2023/05/24 13:59:21;;;;;;;8.45;3.20;;;;;;;;;;5032598;28;20413;-76
2023/05/24 14:01:47;;;;;;;12.45;3.10;;;;;;;;;;5033578;28;20047;-74
2023/05/24 14:04:15;;;;;;;11.68;3.20;;;;;;;;;;5057565;28;20064;-76
2023/05/24 14:06:41;;;;;;;12.30;4.35;;;;;;;;;;5040230;28;20458;-75
2023/05/24 14:09:07;;;;;;;9.50;2.92;;;;;;;;;;5047943;28;20039;-76
2023/05/24 14:11:35;;;;;;;12.05;4.00;;;;;;;;;;5041192;28;20025;-75
2023/05/24 14:14:01;;;;;;;9.93;3.67;;;;;;;;;;5033951;28;20045;-75
2023/05/24 14:16:28;;;;;;;11.05;3.40;;;;;;;;;;5032351;28;20375;-74
2023/05/24 14:18:54;;;;;;;8.68;3.58;;;;;;;;;;5029366;28;20112;-76
2023/05/24 14:21:21;;;;;;;7.10;3.10;;;;;;;;;;5034263;28;20028;-77
2023/05/24 14:23:46;;;;;;;11.15;3.38;;;;;;;;;;5048622;28;20036;-75
2023/05/24 14:26:12;;;;;;;10.20;2.92;;;;;;;;;;5044219;28;20132;-77
2023/05/24 14:28:37;;;;;;;20.23;6.35;;;;;;;;;;5023952;28;20044;-74
2023/05/24 14:31:03;;;;;;;14.55;4.00;;;;;;;;;;5052501;28;20102;-75
2023/05/24 14:33:29;;;;;;;9.13;3.78;;;;;;;;;;5033171;28;20025;-75
2023/05/24 14:35:54;;;;;;;6.63;3.05;;;;;;;;;;5032274;28;20029;-76
2023/05/24 14:38:22;;;;;;;8.25;3.50;;;;;;;;;;5039718;28;20036;-74